Time;durP1;ratioP1;P1;durP2;ratioP2;P2;SDS_P1;SDS_P2;PMS_P1;PMS_P2;Temp;Humidity;BMP_temperature;BMP_pressure;BME280_temperature;BME280_humidity;BME280_pressure;Samples;Min_cycle;Max_cycle;Signal;HPM_P1;HPM_P2
2024/04/06 00:01:39;;;;;;;11.63;7.40;;;16.30;66.00;;;;;;5003915;28;20586;-74
2024/04/06 00:04:05;;;;;;;7.03;3.93;;;16.20;66.10;;;;;;5013396;28;20437;-73
2024/04/06 00:06:31;;;;;;;6.87;4.50;;;16.20;66.10;;;;;;5011022;28;20420;-74
2024/04/06 00:08:57;;;;;;;7.17;3.63;;;16.20;66.00;;;;;;5011144;28;20944;-74
2024/04/06 00:11:22;;;;;;;18.90;6.97;;;16.20;66.10;;;;;;5010897;28;20216;-74
2024/04/06 00:13:49;;;;;;;19.03;8.43;;;16.20;66.40;;;;;;5005224;28;20757;-75
2024/04/06 00:16:15;;;;;;;19.40;7.47;;;16.20;66.10;;;;;;5001617;28;20241;-75
2024/04/06 00:18:40;;;;;;;16.40;6.90;;;16.20;65.70;;;;;;5011669;28;20520;-75
2024/04/06 00:21:06;;;;;;;13.87;6.87;;;16.20;65.80;;;;;;4999534;28;20268;-76
2024/04/06 00:23:32;;;;;;;12.70;5.30;;;16.20;66.00;;;;;;5004777;28;20188;-74
2024/04/06 00:25:57;;;;;;;12.47;6.90;;;16.10;66.00;;;;;;5005849;28;20274;-73
2024/04/06 00:28:24;;;;;;;6.40;3.63;;;16.10;66.10;;;;;;5007217;28;20560;-75
2024/04/06 00:30:49;;;;;;;9.87;3.70;;;16.20;66.10;;;;;;4998327;28;20201;-74
2024/04/06 00:33:15;;;;;;;4.60;2.60;;;16.20;66.10;;;;;;4998515;28;20425;-76
2024/04/06 00:35:40;;;;;;;5.60;3.53;;;16.10;66.10;;;;;;5003354;28;20248;-74
2024/04/06 00:38:07;;;;;;;5.73;3.23;;;16.10;66.10;;;;;;4999521;28;20665;-73
2024/04/06 00:40:33;;;;;;;5.47;2.73;;;16.10;66.10;;;;;;5000667;28;20220;-76
2024/04/06 00:42:58;;;;;;;4.40;2.57;;;16.10;66.00;;;;;;5001089;28;20498;-77
2024/04/06 00:45:24;;;;;;;3.20;2.33;;;16.10;65.70;;;;;;5000429;28;20479;-75
2024/04/06 00:47:50;;;;;;;4.60;2.60;;;16.10;65.80;;;;;;4997121;28;20287;-75
2024/04/06 00:50:15;;;;;;;4.30;2.60;;;16.10;65.70;;;;;;5006131;28;20201;-75
2024/04/06 00:52:41;;;;;;;3.53;2.40;;;16.00;65.80;;;;;;5008598;28;20254;-75
2024/04/06 00:55:07;;;;;;;4.60;2.50;;;16.00;66.00;;;;;;5012493;28;20420;-74
2024/04/06 00:57:33;;;;;;;3.37;2.50;;;16.00;66.00;;;;;;5010428;28;20216;-75
2024/04/06 00:59:59;;;;;;;3.50;2.50;;;16.00;66.00;;;;;;5012878;28;20465;-75
2024/04/06 01:02:25;;;;;;;4.37;2.73;;;15.80;66.10;;;;;;5000535;28;20576;-76
2024/04/06 01:04:51;;;;;;;7.53;2.07;;;15.80;66.10;;;;;;5009006;28;20440;-77
2024/04/06 01:07:17;;;;;;;3.80;2.60;;;15.80;66.40;;;;;;5011760;28;20244;-77
2024/04/06 01:09:42;;;;;;;3.13;2.30;;;15.80;66.40;;;;;;5006875;28;20670;-76
2024/04/06 01:12:09;;;;;;;10.30;2.63;;;15.90;66.30;;;;;;5002683;28;20218;-76
2024/04/06 01:14:35;;;;;;;4.67;2.50;;;15.80;66.40;;;;;;5008957;28;20194;-76
2024/04/06 01:17:00;;;;;;;3.33;2.27;;;15.70;66.70;;;;;;5010827;28;20431;-76
2024/04/06 01:19:26;;;;;;;5.37;2.87;;;15.60;66.90;;;;;;4999705;28;20497;-76
2024/04/06 01:21:51;;;;;;;5.87;2.90;;;15.50;66.90;;;;;;5006290;28;20217;-76
2024/04/06 01:24:24;;;;;;;3.67;2.20;;;15.40;67.00;;;;;;5010160;28;20205;-76
2024/04/06 01:26:49;;;;;;;4.17;2.30;;;15.40;67.20;;;;;;5008767;28;20196;-76
2024/04/06 01:29:16;;;;;;;3.37;2.27;;;15.40;66.90;;;;;;5009952;28;20424;-75
2024/04/06 01:31:41;;;;;;;4.73;2.87;;;15.30;67.30;;;;;;5004070;28;20244;-74
2024/04/06 01:34:10;;;;;;;5.90;2.73;;;15.30;67.30;;;;;;5010964;28;20439;-76
2024/04/06 01:36:40;;;;;;;3.77;2.60;;;15.30;67.30;;;;;;5007424;28;20555;-74
2024/04/06 01:39:11;;;;;;;2.77;2.20;;;15.30;67.30;;;;;;5004477;28;20475;-75
2024/04/06 01:41:37;;;;;;;5.40;2.30;;;15.10;67.50;;;;;;4999657;28;20508;-75
2024/04/06 01:44:06;;;;;;;4.20;2.73;;;15.10;67.60;;;;;;5009002;28;20418;-75
2024/04/06 01:46:33;;;;;;;2.80;2.40;;;15.10;67.60;;;;;;5005276;28;20826;-76
2024/04/06 01:48:58;;;;;;;4.03;2.40;;;15.00;67.60;;;;;;5008159;28;20467;-75
2024/04/06 01:51:24;;;;;;;6.90;3.10;;;14.90;67.90;;;;;;5001647;28;20461;-76
2024/04/06 01:53:50;;;;;;;6.07;2.37;;;14.80;68.00;;;;;;5007399;28;20192;-75
2024/04/06 01:56:16;;;;;;;4.43;3.10;;;14.80;68.00;;;;;;5010833;28;20480;-75
2024/04/06 01:58:41;;;;;;;4.23;2.60;;;14.90;67.70;;;;;;5003876;28;20190;-77
2024/04/06 02:01:07;;;;;;;5.17;2.57;;;14.80;67.90;;;;;;5004705;28;20859;-75
2024/04/06 02:03:35;;;;;;;4.17;2.60;;;14.70;68.00;;;;;;5004783;28;20244;-75
2024/04/06 02:06:01;;;;;;;3.73;2.53;;;14.70;67.70;;;;;;5010883;28;20438;-74
2024/04/06 02:08:27;;;;;;;3.17;2.37;;;14.80;67.90;;;;;;5014577;28;20442;-76
2024/04/06 02:10:52;;;;;;;4.50;2.80;;;14.70;67.70;;;;;;5009307;28;20435;-75
2024/04/06 02:13:18;;;;;;;6.80;2.80;;;14.60;67.90;;;;;;5009668;28;20564;-75
2024/04/06 02:15:44;;;;;;;4.10;2.50;;;14.50;68.20;;;;;;5007041;28;20216;-76
2024/04/06 02:18:10;;;;;;;3.60;2.90;;;14.50;68.00;;;;;;5010918;28;20201;-74
2024/04/06 02:20:37;;;;;;;5.33;2.80;;;14.40;68.20;;;;;;5007931;28;20557;-74
2024/04/06 02:23:02;;;;;;;3.90;2.53;;;14.40;68.20;;;;;;5001946;28;20487;-74
2024/04/06 02:25:28;;;;;;;4.03;2.83;;;14.40;68.30;;;;;;5010064;28;20435;-74
2024/04/06 02:27:54;;;;;;;4.70;2.70;;;14.50;68.30;;;;;;5004108;28;20250;-75
2024/04/06 02:30:21;;;;;;;6.47;2.80;;;14.50;68.30;;;;;;5009235;28;20188;-75
2024/04/06 02:32:47;;;;;;;6.40;2.47;;;14.40;68.30;;;;;;4999999;28;20459;-75
2024/04/06 02:35:14;;;;;;;4.07;2.60;;;14.30;68.50;;;;;;5007461;28;20816;-74
2024/04/06 02:37:40;;;;;;;3.80;2.37;;;14.30;68.50;;;;;;5008883;28;20451;-75
2024/04/06 02:40:08;;;;;;;6.30;2.43;;;14.20;68.60;;;;;;5004665;28;20520;-74
2024/04/06 02:42:34;;;;;;;5.00;2.70;;;14.20;68.90;;;;;;5001569;28;20484;-76
2024/04/06 02:45:00;;;;;;;3.33;2.70;;;14.20;68.90;;;;;;5006075;28;21049;-74
2024/04/06 02:47:26;;;;;;;5.10;2.50;;;14.20;69.10;;;;;;5006307;28;20426;-77
2024/04/06 02:49:51;;;;;;;6.27;2.93;;;14.20;69.10;;;;;;5006230;28;20180;-75
2024/04/06 02:52:17;;;;;;;7.03;2.47;;;14.20;69.20;;;;;;5004530;28;20202;-74
2024/04/06 02:54:43;;;;;;;3.43;2.20;;;14.20;69.20;;;;;;5016681;28;20260;-75
2024/04/06 02:57:08;;;;;;;5.57;2.53;;;14.20;69.20;;;;;;5012855;28;20193;-73
2024/04/06 02:59:34;;;;;;;4.20;2.10;;;14.20;69.40;;;;;;5010503;28;20657;-73
2024/04/06 03:02:00;;;;;;;3.57;2.57;;;14.30;69.20;;;;;;5008633;28;20214;-75
2024/04/06 03:04:25;;;;;;;5.70;2.60;;;14.40;68.90;;;;;;5011102;28;20661;-73
2024/04/06 03:06:51;;;;;;;5.03;2.50;;;14.40;69.10;;;;;;5012114;28;20457;-73
2024/04/06 03:09:18;;;;;;;3.87;2.57;;;14.30;69.20;;;;;;5015675;28;20190;-73
2024/04/06 03:11:45;;;;;;;4.47;2.53;;;14.30;69.40;;;;;;5008724;28;20223;-75
2024/04/06 03:14:10;;;;;;;6.17;2.97;;;14.40;69.10;;;;;;5008863;28;20423;-73
2024/04/06 03:16:36;;;;;;;3.90;2.30;;;14.20;69.40;;;;;;5002075;28;20459;-73
2024/04/06 03:19:02;;;;;;;5.93;2.37;;;14.20;69.20;;;;;;5008049;28;20216;-74
2024/04/06 03:21:28;;;;;;;9.13;3.13;;;14.10;69.20;;;;;;5005247;28;20290;-74
2024/04/06 03:23:54;;;;;;;4.67;2.40;;;14.10;69.40;;;;;;5010356;28;20272;-74
2024/04/06 03:26:20;;;;;;;3.37;2.30;;;14.00;69.70;;;;;;5009683;28;20443;-74
2024/04/06 03:28:46;;;;;;;4.13;3.00;;;13.90;69.80;;;;;;5022126;28;20190;-73
2024/04/06 03:31:11;;;;;;;4.30;2.63;;;13.90;69.90;;;;;;5020818;28;20239;-74
2024/04/06 03:33:37;;;;;;;6.67;3.17;;;13.90;70.10;;;;;;5028190;28;20183;-73
2024/04/06 03:36:03;;;;;;;7.50;2.53;;;13.90;70.20;;;;;;5017114;28;20195;-74
2024/04/06 03:38:28;;;;;;;2.50;2.13;;;13.90;69.90;;;;;;5012348;28;20270;-74
2024/04/06 03:40:55;;;;;;;5.97;2.83;;;13.80;70.40;;;;;;5009716;28;20584;-75
2024/04/06 03:43:21;;;;;;;3.93;2.57;;;13.80;70.20;;;;;;5008714;28;20563;-74
2024/04/06 03:45:47;;;;;;;4.10;2.43;;;14.00;69.10;;;;;;5015359;28;20419;-74
2024/04/06 03:48:13;;;;;;;3.50;2.47;;;14.00;69.20;;;;;;5012260;28;20186;-75
2024/04/06 03:50:39;;;;;;;4.23;2.80;;;14.00;69.20;;;;;;5006518;28;20935;-74
2024/04/06 03:53:04;;;;;;;3.90;2.30;;;13.90;69.40;;;;;;5010074;28;20465;-74
2024/04/06 03:55:30;;;;;;;3.97;2.77;;;13.80;69.90;;;;;;5016816;28;20666;-74
2024/04/06 03:57:56;;;;;;;3.87;2.53;;;13.80;70.40;;;;;;5015396;28;20217;-73
2024/04/06 04:00:22;;;;;;;3.60;2.37;;;13.90;69.80;;;;;;5010672;28;20764;-74
2024/04/06 04:02:47;;;;;;;4.73;2.23;;;13.90;70.10;;;;;;5008495;28;20310;-73
2024/04/06 04:05:13;;;;;;;5.27;2.70;;;13.80;70.40;;;;;;5012178;28;20645;-75
2024/04/06 04:07:39;;;;;;;5.13;3.03;;;13.80;70.40;;;;;;5009800;28;20245;-74
2024/04/06 04:10:06;;;;;;;3.60;2.40;;;13.80;70.10;;;;;;5006987;28;20758;-74
2024/04/06 04:12:33;;;;;;;3.43;2.20;;;13.80;70.10;;;;;;5005524;28;20280;-73
2024/04/06 04:15:01;;;;;;;5.70;2.60;;;13.70;70.20;;;;;;5008083;28;20508;-73
2024/04/06 04:17:26;;;;;;;3.20;2.20;;;13.70;70.50;;;;;;5009690;28;20500;-73
2024/04/06 04:19:52;;;;;;;5.03;2.60;;;13.60;70.70;;;;;;5009787;28;20552;-74
2024/04/06 04:22:18;;;;;;;4.20;2.63;;;13.60;71.00;;;;;;5010275;28;20436;-73
2024/04/06 04:24:43;;;;;;;5.57;2.80;;;13.60;70.70;;;;;;5022391;28;20454;-74
2024/04/06 04:27:09;;;;;;;5.80;2.77;;;13.50;71.00;;;;;;5018620;28;20587;-74
2024/04/06 04:29:35;;;;;;;7.60;2.97;;;13.50;71.60;;;;;;5025486;28;20186;-72
2024/04/06 04:32:00;;;;;;;5.53;2.50;;;13.50;71.60;;;;;;5020958;28;20213;-74
2024/04/06 04:34:26;;;;;;;5.00;2.60;;;13.40;71.70;;;;;;5007931;28;20267;-74
2024/04/06 04:36:51;;;;;;;3.83;2.40;;;13.30;72.00;;;;;;5006448;28;20265;-73
2024/04/06 04:39:17;;;;;;;4.83;2.70;;;13.30;72.10;;;;;;5003041;28;20194;-75
2024/04/06 04:41:43;;;;;;;2.73;2.50;;;13.20;72.30;;;;;;4997714;28;20210;-72
2024/04/06 04:44:09;;;;;;;3.57;2.53;;;13.20;72.70;;;;;;5003296;28;20183;-73
2024/04/06 04:46:34;;;;;;;4.43;2.90;;;13.20;72.70;;;;;;5009516;28;20888;-74
2024/04/06 04:49:00;;;;;;;3.63;2.53;;;13.20;72.70;;;;;;5004772;28;20193;-72
2024/04/06 04:51:26;;;;;;;5.07;2.83;;;13.20;72.40;;;;;;4997723;28;20524;-71
2024/04/06 04:53:53;;;;;;;5.40;2.50;;;13.20;72.70;;;;;;5003790;28;20418;-73
2024/04/06 04:56:19;;;;;;;6.50;2.60;;;13.20;72.90;;;;;;5003352;28;20893;-72
2024/04/06 04:58:45;;;;;;;6.00;2.97;;;13.10;72.90;;;;;;5007290;28;20501;-73
2024/04/06 05:01:11;;;;;;;3.63;2.70;;;13.10;73.00;;;;;;5006252;28;20207;-70
2024/04/06 05:03:37;;;;;;;3.73;2.33;;;13.10;73.00;;;;;;5003624;28;20432;-74
2024/04/06 05:06:03;;;;;;;4.73;2.63;;;13.10;73.00;;;;;;5011024;28;20189;-73
2024/04/06 05:08:29;;;;;;;5.60;3.10;;;13.10;73.20;;;;;;5006033;28;20782;-72
2024/04/06 05:10:55;;;;;;;7.37;2.80;;;13.00;73.20;;;;;;5002685;28;20418;-73
2024/04/06 05:13:21;;;;;;;4.07;2.60;;;13.10;73.30;;;;;;5010153;28;20438;-73
2024/04/06 05:15:48;;;;;;;4.50;2.70;;;13.10;73.20;;;;;;5021039;28;20446;-72
2024/04/06 05:18:14;;;;;;;3.60;2.67;;;13.20;73.00;;;;;;5007697;28;20186;-73
2024/04/06 05:20:40;;;;;;;4.43;2.53;;;13.20;73.00;;;;;;5008588;28;20563;-72
2024/04/06 05:23:06;;;;;;;5.73;2.97;;;13.20;73.30;;;;;;5003459;28;20719;-71
2024/04/06 05:25:32;;;;;;;6.57;2.40;;;13.20;73.00;;;;;;5009135;28;20505;-72
2024/04/06 05:27:57;;;;;;;4.07;2.70;;;13.30;73.20;;;;;;5005324;28;20186;-72
2024/04/06 05:30:23;;;;;;;6.60;3.17;;;13.30;72.90;;;;;;5006750;28;20456;-73
2024/04/06 05:32:48;;;;;;;4.40;3.23;;;13.40;72.90;;;;;;5004278;28;20238;-73
2024/04/06 05:35:14;;;;;;;3.13;2.37;;;13.40;72.70;;;;;;5006932;28;20171;-72
2024/04/06 05:37:39;;;;;;;4.90;2.80;;;13.30;72.90;;;;;;5006681;28;20660;-72
2024/04/06 05:40:07;;;;;;;5.40;2.90;;;13.30;73.00;;;;;;5005466;28;20209;-73
2024/04/06 05:42:33;;;;;;;6.50;3.20;;;13.30;73.20;;;;;;5006164;28;20293;-73
2024/04/06 05:44:58;;;;;;;5.00;3.73;;;13.30;73.20;;;;;;5011194;28;20989;-75
2024/04/06 05:47:24;;;;;;;4.73;3.07;;;13.40;73.20;;;;;;5010303;28;20182;-73
2024/04/06 05:49:50;;;;;;;5.80;3.00;;;13.40;73.30;;;;;;5010204;28;20186;-72
2024/04/06 05:52:16;;;;;;;6.30;3.00;;;13.40;73.30;;;;;;5005122;28;20257;-74
2024/04/06 05:54:42;;;;;;;5.27;2.70;;;13.50;73.30;;;;;;5005887;28;20463;-75
2024/04/06 05:57:07;;;;;;;5.60;2.93;;;13.60;73.30;;;;;;5006245;28;20573;-74
2024/04/06 05:59:33;;;;;;;5.30;2.77;;;13.70;73.00;;;;;;5011332;28;20198;-74
2024/04/06 06:01:59;;;;;;;5.47;2.80;;;13.80;72.70;;;;;;5007523;28;20225;-71
2024/04/06 06:04:24;;;;;;;5.73;3.43;;;13.80;72.70;;;;;;5017039;28;20221;-75
2024/04/06 06:06:50;;;;;;;7.43;3.20;;;13.70;72.70;;;;;;5014942;28;20183;-74
2024/04/06 06:09:15;;;;;;;5.63;3.30;;;13.70;73.00;;;;;;5012460;28;20597;-75
2024/04/06 06:11:41;;;;;;;5.70;3.13;;;13.80;72.90;;;;;;5011662;28;20217;-75
2024/04/06 06:14:06;;;;;;;5.40;3.10;;;13.90;72.90;;;;;;5013920;28;20206;-75
2024/04/06 06:16:32;;;;;;;5.53;3.40;;;14.00;72.70;;;;;;5004637;28;21170;-73
2024/04/06 06:18:57;;;;;;;6.33;3.23;;;14.00;72.70;;;;;;5010164;28;20178;-74
2024/04/06 06:21:23;;;;;;;6.20;3.23;;;14.00;72.40;;;;;;5004060;28;20234;-73
2024/04/06 06:23:49;;;;;;;5.53;3.47;;;14.10;72.40;;;;;;5012023;28;20199;-73
2024/04/06 06:26:14;;;;;;;5.93;3.70;;;14.20;72.10;;;;;;5011304;28;20188;-72
2024/04/06 06:28:40;;;;;;;5.83;3.30;;;14.10;72.10;;;;;;5011931;28;20186;-74
2024/04/06 06:31:05;;;;;;;5.50;3.43;;;14.20;72.30;;;;;;5002970;28;20701;-74
2024/04/06 06:33:31;;;;;;;8.47;3.87;;;14.30;72.30;;;;;;5011748;28;20190;-75
2024/04/06 06:35:56;;;;;;;5.67;3.27;;;14.30;72.10;;;;;;5014944;28;20194;-74
2024/04/06 06:38:22;;;;;;;6.27;3.70;;;14.30;72.10;;;;;;5020108;28;20203;-75
2024/04/06 06:40:48;;;;;;;9.47;4.53;;;14.30;72.30;;;;;;5013497;28;20310;-73
2024/04/06 06:43:14;;;;;;;9.90;4.00;;;14.40;72.30;;;;;;5014179;28;20245;-73
2024/04/06 06:45:40;;;;;;;8.20;5.10;;;14.50;71.80;;;;;;5011545;28;20426;-73
2024/04/06 06:48:06;;;;;;;7.83;5.30;;;14.60;71.70;;;;;;5012164;28;20417;-73
2024/04/06 06:50:31;;;;;;;7.57;4.53;;;14.70;71.40;;;;;;5014586;28;20204;-72
2024/04/06 06:52:57;;;;;;;5.70;4.50;;;14.70;71.30;;;;;;5007440;28;20474;-72
2024/04/06 06:55:23;;;;;;;15.50;5.60;;;14.80;71.30;;;;;;5007037;28;20565;-71
2024/04/06 06:57:48;;;;;;;8.50;5.27;;;14.80;71.30;;;;;;5015633;28;20186;-72
2024/04/06 07:00:15;;;;;;;7.63;5.20;;;14.90;71.30;;;;;;5011797;28;20204;-72
2024/04/06 07:02:41;;;;;;;8.13;4.97;;;15.00;71.00;;;;;;5017649;28;20209;-73
2024/04/06 07:05:06;;;;;;;10.67;5.10;;;15.10;70.70;;;;;;5012645;28;20840;-72
2024/04/06 07:07:34;;;;;;;9.10;5.00;;;15.20;70.80;;;;;;5008464;28;20210;-73
2024/04/06 07:10:00;;;;;;;8.80;4.93;;;15.30;70.40;;;;;;5002505;28;20441;-73
2024/04/06 07:12:25;;;;;;;9.50;5.20;;;15.40;70.10;;;;;;5012124;28;20466;-74
2024/04/06 07:14:51;;;;;;;9.67;5.90;;;15.40;69.80;;;;;;5016754;28;20206;-70
2024/04/06 07:17:17;;;;;;;25.07;13.20;;;15.50;69.80;;;;;;5013509;28;20248;-72
2024/04/06 07:19:42;;;;;;;11.93;6.07;;;15.50;69.70;;;;;;5012141;28;20743;-72
2024/04/06 07:22:08;;;;;;;11.60;5.37;;;15.70;69.10;;;;;;5010184;28;20752;-74
2024/04/06 07:24:34;;;;;;;8.73;5.20;;;15.80;68.30;;;;;;5014371;28;20186;-73
2024/04/06 07:27:00;;;;;;;10.50;5.83;;;15.80;68.00;;;;;;5019108;28;20219;-72
2024/04/06 07:29:25;;;;;;;9.33;4.83;;;15.90;67.20;;;;;;5016438;28;20189;-74
2024/04/06 07:31:51;;;;;;;6.83;4.43;;;15.90;66.90;;;;;;5002187;28;20456;-72
2024/04/06 07:34:18;;;;;;;9.87;4.60;;;16.00;66.70;;;;;;5009617;28;20185;-75
2024/04/06 07:36:43;;;;;;;8.40;4.80;;;16.10;66.60;;;;;;5009213;28;20348;-73
2024/04/06 07:39:09;;;;;;;7.80;4.10;;;16.20;66.30;;;;;;5012506;28;20551;-74
2024/04/06 07:41:36;;;;;;;18.90;9.07;;;16.30;66.10;;;;;;5007066;28;20213;-74
2024/04/06 07:44:01;;;;;;;24.97;14.60;;;16.50;65.80;;;;;;5010046;28;20900;-72
2024/04/06 07:46:28;;;;;;;9.80;6.03;;;16.60;65.40;;;;;;5007827;28;20432;-74
2024/04/06 07:48:55;;;;;;;9.77;4.80;;;16.70;65.10;;;;;;5009660;28;20182;-75
2024/04/06 07:51:21;;;;;;;8.50;6.10;;;16.80;64.70;;;;;;5012848;28;20963;-73
2024/04/06 07:53:46;;;;;;;7.80;4.30;;;16.90;64.40;;;;;;5010937;28;20435;-73
2024/04/06 07:56:12;;;;;;;8.87;4.87;;;17.00;64.50;;;;;;5010649;28;20194;-74
2024/04/06 07:58:37;;;;;;;13.20;5.30;;;17.20;64.50;;;;;;5003438;28;20218;-74
2024/04/06 08:01:03;;;;;;;10.60;5.00;;;17.30;64.10;;;;;;5005605;28;20979;-75
2024/04/06 08:03:29;;;;;;;7.87;4.50;;;17.50;63.90;;;;;;5003512;28;20183;-73
2024/04/06 08:05:55;;;;;;;10.23;4.50;;;17.60;63.90;;;;;;5008021;28;20453;-74
2024/04/06 08:08:20;;;;;;;32.87;5.87;;;17.70;63.70;;;;;;5006217;28;20817;-73
2024/04/06 08:10:46;;;;;;;15.80;4.50;;;17.80;63.40;;;;;;5006549;28;20189;-74
2024/04/06 08:13:13;;;;;;;5.47;3.30;;;17.90;63.20;;;;;;5006001;28;20207;-73
2024/04/06 08:15:39;;;;;;;7.20;3.93;;;18.10;62.60;;;;;;5004437;28;20246;-75
2024/04/06 08:18:05;;;;;;;13.40;4.17;;;18.10;62.50;;;;;;5006831;28;20421;-73
2024/04/06 08:20:31;;;;;;;6.90;3.93;;;18.30;62.90;;;;;;5012336;28;20536;-71
2024/04/06 08:22:56;;;;;;;9.03;4.13;;;18.40;63.10;;;;;;5005829;28;20245;-72
2024/04/06 08:25:22;;;;;;;4.57;2.60;;;18.50;63.10;;;;;;5009068;28;20189;-74
2024/04/06 08:27:48;;;;;;;7.07;3.40;;;18.70;61.30;;;;;;5010589;28;20244;-74
2024/04/06 08:30:14;;;;;;;7.10;2.57;;;18.70;61.50;;;;;;5006806;28;20190;-71
2024/04/06 08:32:40;;;;;;;6.17;3.30;;;18.90;61.00;;;;;;5003969;28;20207;-73
2024/04/06 08:35:11;;;;;;;2.40;2.07;;;19.00;60.60;;;;;;5009140;28;20424;-72
2024/04/06 08:37:37;;;;;;;5.40;2.40;;;19.30;59.10;;;;;;5007659;28;20424;-72
2024/04/06 08:40:03;;;;;;;6.10;2.40;;;19.60;58.10;;;;;;5005457;28;20501;-73
2024/04/06 08:42:30;;;;;;;4.97;2.27;;;19.70;58.00;;;;;;5000223;28;20450;-73
2024/04/06 08:44:56;;;;;;;3.50;2.07;;;19.80;58.20;;;;;;5010260;28;20424;-72
2024/04/06 08:47:22;;;;;;;7.00;2.23;;;19.90;58.10;;;;;;5014692;28;20433;-73
2024/04/06 08:49:49;;;;;;;4.53;2.00;;;20.10;56.90;;;;;;5016856;28;20506;-72
2024/04/06 08:52:15;;;;;;;5.10;1.77;;;20.30;56.80;;;;;;5016835;28;20258;-72
2024/04/06 08:54:42;;;;;;;3.40;2.10;;;20.50;56.00;;;;;;5020101;28;20492;-72
2024/04/06 08:57:08;;;;;;;4.33;2.10;;;20.60;55.80;;;;;;5016408;28;20478;-71
2024/04/06 08:59:34;;;;;;;3.87;1.93;;;20.70;55.80;;;;;;5026041;28;20561;-72
2024/04/06 09:02:01;;;;;;;4.33;2.10;;;20.70;56.10;;;;;;5020961;28;20624;-73
2024/04/06 09:04:27;;;;;;;4.37;2.30;;;20.80;56.20;;;;;;5019575;28;20432;-73
2024/04/06 09:06:52;;;;;;;3.30;2.27;;;20.80;56.00;;;;;;5019910;28;20452;-73
2024/04/06 09:09:18;;;;;;;4.67;2.33;;;21.10;55.40;;;;;;5007106;28;20197;-73
2024/04/06 09:11:44;;;;;;;5.00;2.17;;;21.20;55.60;;;;;;5009233;28;20752;-72
2024/04/06 09:14:11;;;;;;;5.33;2.10;;;21.30;54.80;;;;;;5016159;28;20215;-72
2024/04/06 09:16:38;;;;;;;3.53;1.90;;;21.40;54.60;;;;;;5009943;28;20591;-73
2024/04/06 09:19:04;;;;;;;3.50;2.13;;;21.50;54.80;;;;;;5012357;28;20442;-73
2024/04/06 09:21:30;;;;;;;2.67;1.80;;;21.60;54.00;;;;;;5010092;28;20871;-72
2024/04/06 09:23:59;;;;;;;12.70;2.60;;;21.70;53.40;;;;;;5014802;28;20186;-73
2024/04/06 09:26:30;;;;;;;6.73;2.00;;;21.80;53.00;;;;;;5006549;28;20432;-72
2024/04/06 09:28:57;;;;;;;2.50;1.73;;;21.80;51.70;;;;;;5016001;28;20423;-72
2024/04/06 09:31:25;;;;;;;4.70;2.27;;;21.90;51.60;;;;;;4999392;28;20454;-72
2024/04/06 09:33:55;;;;;;;4.90;2.20;;;22.00;51.30;;;;;;5011600;28;20955;-72
2024/04/06 09:36:21;;;;;;;3.57;1.90;;;22.00;51.40;;;;;;5007169;28;20411;-72
2024/04/06 09:38:48;;;;;;;3.30;1.93;;;22.10;50.20;;;;;;5028201;28;20491;-72
2024/04/06 09:41:19;;;;;;;2.77;1.70;;;22.10;51.00;;;;;;5014626;28;20885;-69
2024/04/06 09:43:52;;;;;;;4.13;2.03;;;22.10;51.40;;;;;;5012068;28;20430;-72
2024/04/06 09:46:19;;;;;;;2.40;1.70;;;22.20;51.30;;;;;;5010175;28;20437;-71
2024/04/06 09:48:47;;;;;;;3.23;2.20;;;22.30;51.20;;;;;;5011866;28;20482;-72
2024/04/06 09:51:13;;;;;;;8.23;2.53;;;22.30;49.50;;;;;;5011438;28;20457;-72
2024/04/06 09:53:43;;;;;;;2.47;1.60;;;22.40;50.20;;;;;;5007607;28;20927;-74
2024/04/06 09:56:10;;;;;;;10.03;3.70;;;22.60;50.20;;;;;;5013750;28;20986;-73
2024/04/06 09:58:48;;;;;;;32.93;15.97;;;22.70;48.30;;;;;;5017043;28;20454;-73
2024/04/06 10:01:17;;;;;;;5.87;3.20;;;22.70;48.70;;;;;;5011200;28;20486;-70
2024/04/06 10:03:48;;;;;;;3.83;1.80;;;22.90;48.70;;;;;;5017173;28;20509;-72
2024/04/06 10:06:18;;;;;;;3.53;1.60;;;23.00;43.00;;;;;;5016895;28;20428;-75
2024/04/06 10:08:48;;;;;;;4.93;1.83;;;23.10;42.70;;;;;;5017292;28;20450;-71
2024/04/06 10:11:17;;;;;;;2.80;1.80;;;23.30;41.40;;;;;;5006224;28;20474;-72
2024/04/06 10:13:58;;;;;;;3.13;1.73;;;23.40;42.00;;;;;;5008852;28;20431;-72
2024/04/06 10:16:38;;;;;;;2.13;1.60;;;23.50;41.20;;;;;;5026050;28;20425;-72
2024/04/06 10:19:10;;;;;;;2.73;1.60;;;23.50;39.60;;;;;;5014354;28;21162;-74
2024/04/06 10:21:41;;;;;;;2.83;1.60;;;23.70;38.60;;;;;;5006463;28;21178;-74
2024/04/06 10:24:13;;;;;;;5.70;1.77;;;23.80;38.00;;;;;;5010829;28;20470;-73
2024/04/06 10:26:47;;;;;;;2.97;1.50;;;23.90;37.90;;;;;;5014265;28;20486;-73
2024/04/06 10:29:13;;;;;;;3.70;1.70;;;24.00;35.50;;;;;;5012348;28;20440;-72
2024/04/06 10:31:41;;;;;;;2.33;1.50;;;24.10;34.70;;;;;;5010394;28;20468;-72
2024/04/06 10:34:07;;;;;;;2.33;1.60;;;24.10;32.80;;;;;;5013645;28;20451;-73
2024/04/06 10:36:33;;;;;;;3.50;1.50;;;24.10;32.30;;;;;;5008246;28;20434;-73
2024/04/06 10:38:58;;;;;;;2.50;1.73;;;24.40;31.50;;;;;;5014975;28;20424;-71
2024/04/06 10:41:24;;;;;;;3.73;1.70;;;24.40;31.90;;;;;;5008368;28;20206;-73
2024/04/06 10:43:50;;;;;;;3.00;1.53;;;24.50;32.00;;;;;;5012400;28;20218;-73
2024/04/06 10:46:16;;;;;;;2.40;1.67;;;24.70;32.00;;;;;;5014467;28;20788;-72
2024/04/06 10:48:43;;;;;;;2.60;1.83;;;24.90;31.50;;;;;;5015427;28;20451;-73
2024/04/06 10:51:09;;;;;;;3.10;1.70;;;25.20;31.60;;;;;;5010543;28;21074;-72
2024/04/06 10:53:37;;;;;;;3.83;3.00;;;25.50;31.10;;;;;;5008711;28;20455;-71
2024/04/06 10:56:04;;;;;;;6.30;2.37;;;25.60;29.70;;;;;;5013261;28;20200;-71
2024/04/06 10:58:30;;;;;;;3.63;1.70;;;25.90;29.90;;;;;;5005616;28;20524;-70
2024/04/06 11:00:56;;;;;;;3.43;1.83;;;26.30;29.50;;;;;;5007944;28;20580;-73
2024/04/06 11:03:22;;;;;;;3.13;2.27;;;26.30;29.60;;;;;;5010965;28;20629;-74
2024/04/06 11:05:48;;;;;;;2.83;1.50;;;26.30;29.90;;;;;;5011431;28;20427;-72
2024/04/06 11:08:13;;;;;;;1.50;1.30;;;26.30;29.70;;;;;;5019934;28;20709;-73
2024/04/06 11:10:39;;;;;;;3.33;1.40;;;26.40;29.50;;;;;;5017408;28;20420;-74
2024/04/06 11:13:05;;;;;;;3.70;1.73;;;26.30;29.20;;;;;;5019537;28;20654;-74
2024/04/06 11:15:30;;;;;;;2.40;1.60;;;26.30;29.20;;;;;;5005789;28;20225;-71
2024/04/06 11:17:58;;;;;;;2.97;1.63;;;26.50;29.70;;;;;;5010115;28;20185;-72
2024/04/06 11:20:24;;;;;;;4.40;1.50;;;26.70;29.40;;;;;;5004039;28;20584;-72
2024/04/06 11:22:50;;;;;;;3.20;1.50;;;26.90;28.70;;;;;;5012453;28;20465;-73
2024/04/06 11:25:17;;;;;;;3.73;2.10;;;26.90;28.40;;;;;;5009000;28;20181;-74
2024/04/06 11:27:54;;;;;;;2.60;1.53;;;26.80;28.60;;;;;;5010329;28;20413;-72
2024/04/06 11:30:20;;;;;;;2.20;1.43;;;26.70;28.80;;;;;;5004156;28;20434;-74
2024/04/06 11:32:50;;;;;;;2.30;1.57;;;26.70;28.10;;;;;;5000508;28;20464;-72
2024/04/06 11:35:17;;;;;;;2.67;1.50;;;26.50;27.10;;;;;;5010979;28;20425;-72
2024/04/06 11:37:44;;;;;;;3.13;1.83;;;26.40;27.10;;;;;;5004408;28;20449;-73
2024/04/06 11:40:10;;;;;;;3.40;1.70;;;26.70;27.60;;;;;;5009974;28;20484;-73
2024/04/06 11:42:36;;;;;;;1.57;1.13;;;27.00;27.00;;;;;;4998743;28;20543;-73
2024/04/06 11:45:02;;;;;;;2.70;1.43;;;26.80;27.00;;;;;;5012042;28;20456;-74
2024/04/06 11:47:31;;;;;;;2.20;1.40;;;26.80;26.70;;;;;;5010132;28;20204;-74
2024/04/06 11:49:56;;;;;;;3.23;1.60;;;27.10;26.80;;;;;;5011220;28;20436;-74
2024/04/06 11:52:22;;;;;;;2.70;1.57;;;27.30;26.40;;;;;;5009838;28;20483;-73
2024/04/06 11:54:48;;;;;;;2.60;1.47;;;27.10;25.90;;;;;;5012142;28;20515;-74
2024/04/06 11:57:14;;;;;;;1.73;1.37;;;27.00;26.50;;;;;;5010314;28;20190;-73
2024/04/06 11:59:40;;;;;;;2.30;1.87;;;27.30;26.20;;;;;;5010371;28;20476;-71
2024/04/06 12:02:06;;;;;;;2.20;1.27;;;27.80;25.70;;;;;;5009619;28;20467;-72
2024/04/06 12:04:31;;;;;;;2.90;1.57;;;28.10;25.30;;;;;;5021439;28;20265;-72
2024/04/06 12:06:58;;;;;;;2.70;1.77;;;28.10;25.40;;;;;;5020503;28;20186;-73
2024/04/06 12:09:24;;;;;;;2.03;1.37;;;28.20;25.30;;;;;;5020100;28;20965;-72
2024/04/06 12:11:50;;;;;;;3.47;1.87;;;28.30;25.00;;;;;;5019284;28;20465;-73
2024/04/06 12:14:15;;;;;;;3.60;2.00;;;28.10;25.10;;;;;;5012122;28;20182;-72
2024/04/06 12:16:41;;;;;;;1.93;1.50;;;28.10;25.50;;;;;;5017608;28;20185;-74
2024/04/06 12:19:07;;;;;;;3.40;1.50;;;28.10;25.20;;;;;;5018952;28;20248;-72
2024/04/06 12:21:33;;;;;;;3.80;1.60;;;28.10;25.40;;;;;;5013655;28;20260;-73
2024/04/06 12:23:58;;;;;;;1.93;1.40;;;28.30;24.90;;;;;;5012697;28;20429;-72
2024/04/06 12:26:24;;;;;;;2.40;1.50;;;28.30;25.20;;;;;;5012440;28;20682;-74
2024/04/06 12:28:50;;;;;;;2.67;1.20;;;27.90;26.00;;;;;;5010760;28;20224;-71
2024/04/06 12:31:17;;;;;;;3.90;1.87;;;27.90;26.10;;;;;;5008128;28;20507;-73
2024/04/06 12:33:44;;;;;;;2.97;1.47;;;28.00;25.70;;;;;;5011857;28;20421;-74
2024/04/06 12:36:10;;;;;;;3.00;1.73;;;28.20;25.90;;;;;;5005640;28;20437;-75
2024/04/06 12:38:36;;;;;;;2.13;1.70;;;28.50;25.10;;;;;;5004959;28;20449;-72
2024/04/06 12:41:03;;;;;;;7.43;1.73;;;28.80;24.50;;;;;;5006112;28;20985;-72